Time;durP1;ratioP1;P1;durP2;ratioP2;P2;SDS_P1;SDS_P2;PMS_P1;PMS_P2;Temp;Humidity;BMP_temperature;BMP_pressure;BME280_temperature;BME280_humidity;BME280_pressure;Samples;Min_cycle;Max_cycle;Signal;HPM_P1;HPM_P2
2022/10/27 00:01:55;;;;;;;36.13;13.13;;;;;;;18.56;73.24;102173.34;4962816;28;20062;-81
2022/10/27 00:04:24;;;;;;;33.28;12.93;;;;;;;17.67;73.06;102028.81;4971474;28;20401;-82
2022/10/27 00:06:51;;;;;;;27.17;12.90;;;;;;;18.62;73.23;102179.13;4972552;28;20596;-82
2022/10/27 00:09:24;;;;;;;26.67;13.35;;;;;;;18.49;73.16;102164.19;4972004;28;20051;-83
2022/10/27 00:11:54;;;;;;;31.17;12.95;;;;;;;18.51;73.53;102158.69;4971681;28;20050;-81
2022/10/27 00:14:21;;;;;;;24.27;13.15;;;;;;;18.26;73.48;102125.28;4970157;28;20417;-81
2022/10/27 00:16:55;;;;;;;29.67;14.35;;;;;;;18.60;73.53;102178.47;4973113;28;20129;-78
2022/10/27 00:19:23;;;;;;;19.90;13.05;;;;;;;18.46;73.45;102159.13;4968201;28;20058;-82
2022/10/27 00:21:56;;;;;;;24.50;12.50;;;;;;;18.44;73.57;102154.91;4973480;28;20066;-81
2022/10/27 00:24:25;;;;;;;27.08;13.10;;;;;;;18.56;73.92;102181.41;4972495;28;20042;-81
2022/10/27 00:26:52;;;;;;;24.30;13.23;;;;;;;18.13;73.63;102121.13;4953083;28;20090;-81
2022/10/27 00:29:22;;;;;;;26.00;12.93;;;;;;;17.92;73.91;102082.88;4958048;28;20602;-81
2022/10/27 00:31:51;;;;;;;27.50;13.05;;;;;;;18.50;73.51;102182.03;4953726;28;20054;-82
2022/10/27 00:34:20;;;;;;;31.73;13.82;;;;;;;18.29;73.88;102151.88;4959119;28;20060;-81
2022/10/27 00:36:49;;;;;;;24.85;12.88;;;;;;;18.51;73.88;102182.88;4956540;28;20571;-82
2022/10/27 00:39:16;;;;;;;29.30;13.38;;;;;;;18.37;73.85;102160.03;4960029;28;20446;-80
2022/10/27 00:41:44;;;;;;;27.83;12.52;;;;;;;18.42;73.22;102155.03;4965826;28;20140;-80
2022/10/27 00:44:30;;;;;;;26.48;12.95;;;;;;;18.63;73.17;102188.91;4976666;28;20089;-82
2022/10/27 00:47:08;;;;;;;31.02;13.02;;;;;;;18.48;73.32;102173.28;4973693;28;20058;-79
2022/10/27 00:49:42;;;;;;;29.02;14.18;;;;;;;18.41;73.38;102155.22;4975066;28;20128;-78
2022/10/27 00:52:35;;;;;;;26.08;13.07;;;;;;;18.50;73.58;102182.03;4975107;28;20054;-80
2022/10/27 00:55:16;;;;;;;24.80;13.57;;;;;;;18.43;73.44;102175.56;4970401;28;20582;-82
2022/10/27 00:57:49;;;;;;;35.85;12.90;;;;;;;18.37;73.92;102176.16;4954473;28;20410;-83
2022/10/27 01:00:23;;;;;;;30.05;12.50;;;;;;;18.34;73.35;102150.41;4958180;28;20054;-83
2022/10/27 01:02:55;;;;;;;36.85;13.23;;;;;;;18.52;73.48;102180.06;4957982;28;20668;-82
2022/10/27 01:05:31;;;;;;;26.42;12.75;;;;;;;18.51;73.76;102186.41;4958864;28;20050;-82
2022/10/27 01:08:01;;;;;;;28.85;13.25;;;;;;;18.38;73.83;102177.88;4952368;28;20473;-82
2022/10/27 01:10:29;;;;;;;30.00;14.25;;;;;;;18.19;74.13;102156.44;4938930;28;20517;-82
2022/10/27 01:12:57;;;;;;;34.30;14.70;;;;;;;17.68;74.03;102067.25;4971421;28;20488;-82
2022/10/27 01:15:40;;;;;;;22.13;12.32;;;;;;;18.12;74.12;102167.78;4974526;28;20157;-83
2022/10/27 01:18:22;;;;;;;;;;;;;;;18.37;74.18;102200.34;4975773;28;20061;-82
2022/10/27 01:21:16;;;;;;;31.60;13.63;;;;;;;18.39;74.03;102190.31;4976276;28;19979;-82
2022/10/27 01:23:58;;;;;;;30.70;13.20;;;;;;;18.34;74.33;102192.59;4978144;28;20058;-83
2022/10/27 01:26:46;;;;;;;31.40;13.55;;;;;;;18.10;74.55;102147.44;4974840;28;20098;-82
2022/10/27 01:29:34;;;;;;;27.30;13.77;;;;;;;18.30;74.46;102191.19;4975092;28;20156;-82
2022/10/27 01:32:27;;;;;;;22.45;12.55;;;;;;;18.38;74.34;102199.38;4976494;28;20435;-83
2022/10/27 01:35:12;;;;;;;25.05;12.30;;;;;;;18.41;73.84;102188.31;4975757;28;20655;-82
2022/10/27 01:37:59;;;;;;;25.17;13.02;;;;;;;17.96;73.81;102124.56;4958821;28;20050;-81
2022/10/27 01:40:29;;;;;;;26.83;12.77;;;;;;;17.35;73.89;102012.28;4952272;28;20050;-82
2022/10/27 01:43:04;;;;;;;28.13;13.27;;;;;;;17.93;73.46;102104.22;4954327;28;20472;-81
2022/10/27 01:45:37;;;;;;;35.28;13.80;;;;;;;18.24;73.57;102148.78;4952032;28;20113;-83
2022/10/27 01:48:10;;;;;;;30.30;13.35;;;;;;;18.40;73.54;102181.25;4956917;28;20058;-81
2022/10/27 01:50:43;;;;;;;24.45;12.73;;;;;;;18.20;73.89;102152.75;4934133;28;20050;-82
2022/10/27 01:53:32;;;;;;;30.90;14.73;;;;;;;18.33;74.03;102180.16;4941692;28;20042;-81
2022/10/27 01:56:31;;;;;;;33.95;13.65;;;;;;;18.07;74.29;102161.16;4948041;28;20476;-81
2022/10/27 01:59:31;;;;;;;29.95;14.15;;;;;;;18.24;74.43;102191.78;4948836;28;20194;-81
2022/10/27 02:02:22;;;;;;;29.20;13.25;;;;;;;18.18;74.56;102192.38;4932746;28;20051;-81
2022/10/27 02:05:38;;;;;;;28.65;13.27;;;;;;;18.06;75.07;102184.50;4928787;28;20065;-82
2022/10/27 02:08:26;;;;;;;29.20;13.43;;;;;;;17.22;74.98;102039.44;4948043;28;20066;-82
2022/10/27 02:11:04;;;;;;;27.58;12.60;;;;;;;17.75;74.61;102123.94;4950120;28;20058;-81
2022/10/27 02:13:36;;;;;;;22.02;13.10;;;;;;;18.23;74.73;102206.22;4950581;28;20156;-81
2022/10/27 02:16:07;;;;;;;35.28;14.10;;;;;;;17.90;74.70;102147.50;4949479;28;20055;-81
2022/10/27 02:18:55;;;;;;;35.53;12.48;;;;;;;18.07;74.23;102175.44;4952330;28;20046;-80
2022/10/27 02:21:25;;;;;;;25.50;12.65;;;;;;;18.24;74.42;102191.78;4948291;28;20077;-79
2022/10/27 02:23:55;;;;;;;28.67;13.65;;;;;;;17.70;74.71;102119.84;4950713;28;20169;-82
2022/10/27 02:26:43;;;;;;;22.10;13.07;;;;;;;17.91;74.30;102168.03;4953909;28;20412;-81
2022/10/27 02:29:23;;;;;;;32.42;13.35;;;;;;;18.08;74.77;102204.03;4945994;28;20571;-80
2022/10/27 02:32:18;;;;;;;21.50;13.63;;;;;;;18.04;74.96;102207.16;4952802;28;20606;-80
2022/10/27 02:34:49;;;;;;;32.28;12.98;;;;;;;17.88;75.54;102180.88;4947544;28;20050;-81
2022/10/27 02:37:25;;;;;;;29.55;13.95;;;;;;;18.00;75.11;102198.53;4936516;28;20058;-80
2022/10/27 02:39:51;;;;;;;31.05;13.52;;;;;;;17.98;75.21;102199.66;4929771;28;20455;-81
2022/10/27 02:42:18;;;;;;;26.70;13.57;;;;;;;17.94;75.48;102194.59;4929846;28;20043;-80
2022/10/27 02:44:46;;;;;;;35.08;14.05;;;;;;;17.90;75.48;102189.66;4929292;28;20077;-81
2022/10/27 02:47:13;;;;;;;28.20;12.65;;;;;;;17.96;75.29;102199.78;4930940;28;20516;-83
2022/10/27 02:49:52;;;;;;;32.33;13.77;;;;;;;17.66;74.64;102131.00;4945375;28;20056;-82
2022/10/27 02:52:29;;;;;;;28.15;13.50;;;;;;;18.02;74.36;102184.94;4949829;28;20283;-82
2022/10/27 02:54:56;;;;;;;29.90;12.98;;;;;;;18.18;74.09;102195.06;4951923;28;20524;-81
2022/10/27 02:57:30;;;;;;;29.20;13.18;;;;;;;18.12;73.77;102183.06;4946630;28;20497;-81
2022/10/27 03:00:06;;;;;;;36.45;14.02;;;;;;;18.02;74.38;102177.72;4947590;28;20050;-83
2022/10/27 03:02:33;;;;;;;28.35;13.95;;;;;;;17.98;74.39;102186.22;4952612;28;20425;-82
2022/10/27 03:05:00;;;;;;;36.22;15.68;;;;;;;17.87;75.06;102184.56;4951152;28;20713;-83
2022/10/27 03:07:26;;;;;;;28.38;13.68;;;;;;;17.81;75.25;102187.84;4949680;28;20058;-81
2022/10/27 03:10:01;;;;;;;37.05;14.00;;;;;;;17.80;75.37;102203.09;4944840;28;20390;-81
2022/10/27 03:12:31;;;;;;;23.50;12.93;;;;;;;17.72;75.59;102209.19;4946711;28;20543;-82
2022/10/27 03:15:04;;;;;;;28.65;14.27;;;;;;;17.86;75.56;102225.84;4928882;28;20441;-81
2022/10/27 03:17:34;;;;;;;31.73;13.93;;;;;;;17.77;76.01;102226.69;4929736;28;20054;-80
2022/10/27 03:20:01;;;;;;;24.98;12.85;;;;;;;17.71;75.96;102218.19;4942089;28;20059;-81
2022/10/27 03:22:35;;;;;;;23.08;12.45;;;;;;;17.77;75.64;102221.31;4931951;28;20066;-79
2022/10/27 03:25:02;;;;;;;19.98;13.30;;;;;;;17.76;75.59;102219.63;4931480;28;20523;-80
2022/10/27 03:27:28;;;;;;;22.08;13.13;;;;;;;17.62;75.14;102181.50;4932911;28;20170;-80
2022/10/27 03:30:04;;;;;;;23.75;13.85;;;;;;;17.92;75.06;102241.41;4931006;28;20047;-78
2022/10/27 03:32:36;;;;;;;29.63;13.98;;;;;;;17.60;75.49;102198.72;4927950;28;20050;-80
2022/10/27 03:35:05;;;;;;;23.17;14.05;;;;;;;17.82;75.43;102237.91;4931034;28;20255;-80
2022/10/27 03:37:37;;;;;;;25.90;13.52;;;;;;;17.79;75.94;102248.88;4946513;28;20085;-80
2022/10/27 03:40:04;;;;;;;36.05;14.05;;;;;;;17.75;75.73;102237.59;4952941;28;20068;-81
2022/10/27 03:42:30;;;;;;;27.35;14.38;;;;;;;17.44;75.59;102183.22;4951270;28;20505;-80
2022/10/27 03:45:03;;;;;;;31.60;13.57;;;;;;;17.71;75.67;102233.47;4947377;28;20224;-81
2022/10/27 03:47:29;;;;;;;31.90;14.27;;;;;;;17.72;76.24;102246.78;4945920;28;20247;-81
2022/10/27 03:49:56;;;;;;;37.40;15.48;;;;;;;17.59;76.06;102224.72;4950671;28;20197;-81
2022/10/27 03:52:23;;;;;;;32.80;14.45;;;;;;;17.41;75.99;102199.59;4948824;28;20062;-81
2022/10/27 03:54:52;;;;;;;37.50;14.55;;;;;;;17.69;76.06;102256.94;4950937;28;20657;-82
2022/10/27 03:57:24;;;;;;;23.70;12.95;;;;;;;17.75;75.69;102255.53;4951492;28;20054;-82
2022/10/27 03:59:58;;;;;;;38.55;13.88;;;;;;;17.81;74.85;102238.88;4955528;28;20160;-82
2022/10/27 04:02:30;;;;;;;30.20;14.55;;;;;;;17.93;74.57;102275.31;4950585;28;20054;-82
2022/10/27 04:05:02;;;;;;;27.98;14.50;;;;;;;17.89;74.66;102269.41;4955874;28;20050;-81
2022/10/27 04:07:32;;;;;;;35.63;14.48;;;;;;;17.79;74.74;102276.59;4951877;28;20056;-82
2022/10/27 04:10:00;;;;;;;22.23;13.90;;;;;;;17.77;74.86;102272.34;4955159;28;20396;-83
2022/10/27 04:12:31;;;;;;;28.45;13.27;;;;;;;16.91;74.43;102140.72;4953450;28;20400;-82
2022/10/27 04:15:00;;;;;;;;;;;;;;;17.35;74.59;102225.16;4950147;28;20475;-81
2022/10/27 04:17:32;;;;;;;28.63;13.77;;;;;;;17.63;74.75;102279.84;4956463;28;20077;-81
2022/10/27 04:19:59;;;;;;;23.23;13.35;;;;;;;17.31;74.72;102226.44;4968684;28;20055;-79
2022/10/27 04:22:26;;;;;;;33.88;13.77;;;;;;;17.27;74.60;102219.66;4977921;28;20496;-81
2022/10/27 04:24:55;;;;;;;27.55;13.85;;;;;;;17.51;74.56;102262.19;4974251;28;20588;-81
2022/10/27 04:27:27;;;;;;;29.23;13.90;;;;;;;17.32;74.31;102230.81;4951020;28;20142;-80
2022/10/27 04:29:54;;;;;;;33.63;14.20;;;;;;;17.46;74.85;102289.47;4953112;28;20200;-82
2022/10/27 04:32:26;;;;;;;33.40;15.05;;;;;;;17.23;75.02;102251.31;4955745;28;20555;-83
2022/10/27 04:34:53;;;;;;;29.70;14.07;;;;;;;17.23;74.79;102267.41;4953552;28;20128;-82
2022/10/27 04:37:22;;;;;;;36.85;15.13;;;;;;;17.28;75.03;102270.53;4953106;28;20164;-81
2022/10/27 04:39:48;;;;;;;30.13;14.50;;;;;;;17.39;74.79;102295.53;4955618;28;20127;-80
2022/10/27 04:42:19;;;;;;;30.33;14.07;;;;;;;17.30;74.96;102295.38;4967251;28;20428;-83
2022/10/27 04:44:46;;;;;;;32.97;14.48;;;;;;;17.10;74.88;102240.00;4971715;28;20057;-83
2022/10/27 04:47:13;;;;;;;39.15;16.15;;;;;;;17.36;74.66;102295.81;4969017;28;20046;-81
2022/10/27 04:49:40;;;;;;;29.63;14.25;;;;;;;17.29;74.80;102293.69;4958606;28;20213;-82
2022/10/27 04:52:07;;;;;;;33.33;13.65;;;;;;;17.24;74.86;102285.22;4949267;28;20256;-80
2022/10/27 04:54:37;;;;;;;34.55;14.88;;;;;;;17.13;74.92;102266.53;4948630;28;20109;-81
2022/10/27 04:57:04;;;;;;;37.58;14.57;;;;;;;17.06;74.66;102255.53;4951590;28;20514;-82
2022/10/27 04:59:30;;;;;;;38.05;15.40;;;;;;;17.21;75.24;102284.63;4946291;28;20329;-81
2022/10/27 05:01:57;;;;;;;32.53;18.90;;;;;;;17.18;74.88;102285.75;4951474;28;20061;-81
2022/10/27 05:04:25;;;;;;;26.17;18.75;;;;;;;16.94;75.42;102261.97;4952412;28;20137;-83
2022/10/27 05:06:54;;;;;;;33.78;16.45;;;;;;;16.84;75.44;102251.22;4954808;28;20361;-80
2022/10/27 05:09:21;;;;;;;36.80;16.33;;;;;;;16.93;75.63;102264.81;4949068;28;20065;-81
2022/10/27 05:11:50;;;;;;;26.73;15.18;;;;;;;17.08;75.78;102301.81;4953387;28;20054;-81
2022/10/27 05:14:17;;;;;;;26.00;15.23;;;;;;;17.02;76.04;102301.56;4949801;28;20386;-81
2022/10/27 05:16:49;;;;;;;27.63;14.63;;;;;;;17.01;76.00;102294.47;4956058;28;20514;-82
2022/10/27 05:19:15;;;;;;;31.90;15.77;;;;;;;17.03;75.91;102296.03;4962258;28;20214;-80
2022/10/27 05:21:43;;;;;;;40.13;16.58;;;;;;;16.93;75.81;102275.53;4975840;28;20483;-80
2022/10/27 05:24:10;;;;;;;34.40;15.60;;;;;;;17.05;76.06;102304.78;4969614;28;20051;-82
2022/10/27 05:26:40;;;;;;;34.20;16.58;;;;;;;17.10;75.71;102309.75;4954320;28;20537;-79
2022/10/27 05:29:07;;;;;;;30.48;15.52;;;;;;;17.01;75.79;102299.84;4954241;28;20185;-80
2022/10/27 05:31:38;;;;;;;32.05;15.52;;;;;;;17.04;76.07;102304.94;4948395;28;20054;-80
2022/10/27 05:34:06;;;;;;;31.33;15.73;;;;;;;16.75;76.19;102278.84;4953545;28;20050;-82
2022/10/27 05:36:46;;;;;;;35.40;15.82;;;;;;;16.12;76.39;102176.34;4948901;28;20062;-83
2022/10/27 05:39:13;;;;;;;38.67;15.23;;;;;;;16.87;76.68;102298.41;4952804;28;20559;-81
2022/10/27 05:41:40;;;;;;;40.97;16.17;;;;;;;17.01;76.45;102326.66;4953053;28;20683;-81
2022/10/27 05:44:09;;;;;;;42.55;26.60;;;;;;;16.82;76.45;102290.78;4952166;28;20054;-81
2022/10/27 05:46:35;;;;;;;38.75;16.92;;;;;;;17.03;76.59;102325.53;4954025;28;20051;-81
2022/10/27 05:49:02;;;;;;;35.97;16.60;;;;;;;16.90;76.15;102290.09;4953053;28;20259;-80
2022/10/27 05:51:29;;;;;;;38.13;16.25;;;;;;;16.91;76.72;102293.59;4954716;28;20054;-81
2022/10/27 05:53:59;;;;;;;41.13;16.23;;;;;;;16.82;76.67;102292.56;4951135;28;20159;-80
2022/10/27 05:56:25;;;;;;;30.33;17.08;;;;;;;17.10;77.27;102333.91;4955055;28;20850;-81
2022/10/27 05:59:07;;;;;;;30.90;16.05;;;;;;;17.14;76.67;102338.03;4950601;28;20473;-82
2022/10/27 06:01:34;;;;;;;34.90;15.73;;;;;;;16.85;75.91;102260.16;4951702;28;20324;-81
2022/10/27 06:04:00;;;;;;;28.73;14.88;;;;;;;17.05;75.54;102285.16;4950548;28;20264;-82
2022/10/27 06:06:28;;;;;;;33.67;16.50;;;;;;;16.67;75.49;102217.00;4947627;28;20057;-80
2022/10/27 06:08:54;;;;;;;30.30;16.38;;;;;;;16.76;76.06;102245.69;4956088;28;20054;-83
2022/10/27 06:11:21;;;;;;;32.03;16.23;;;;;;;16.90;76.38;102265.09;4959854;28;20116;-81
2022/10/27 06:13:50;;;;;;;39.95;16.80;;;;;;;17.30;76.32;102343.69;4954709;28;20144;-82
2022/10/27 06:16:21;;;;;;;30.55;16.10;;;;;;;17.12;76.26;102318.53;4949516;28;20524;-82
2022/10/27 06:18:52;;;;;;;32.45;15.82;;;;;;;17.29;76.16;102347.38;4952030;28;20327;-80
2022/10/27 06:21:22;;;;;;;38.72;15.30;;;;;;;17.30;75.92;102343.69;4947456;28;20113;-83
2022/10/27 06:23:55;;;;;;;35.63;15.85;;;;;;;17.04;76.33;102307.63;4954073;28;20480;-81
2022/10/27 06:26:22;;;;;;;37.85;16.50;;;;;;;17.24;76.23;102325.47;4950685;28;20132;-82
2022/10/27 06:28:54;;;;;;;39.97;15.20;;;;;;;17.05;76.09;102295.91;4953452;28;20170;-82
2022/10/27 06:31:21;;;;;;;35.55;14.75;;;;;;;17.46;75.94;102363.78;4954019;28;20081;-81
2022/10/27 06:33:48;;;;;;;37.50;15.52;;;;;;;17.44;75.95;102353.19;4945667;28;20050;-81
2022/10/27 06:36:18;;;;;;;42.85;16.73;;;;;;;17.54;76.29;102366.63;4952424;28;20722;-80
2022/10/27 06:38:46;;;;;;;30.50;17.33;;;;;;;17.57;76.00;102366.34;4966045;28;20238;-80
2022/10/27 06:41:19;;;;;;;37.03;18.52;;;;;;;17.37;75.99;102327.88;4967274;28;20058;-80
2022/10/27 06:43:50;;;;;;;39.40;17.88;;;;;;;17.64;75.71;102372.84;4949501;28;20670;-80
2022/10/27 06:46:30;;;;;;;40.00;18.88;;;;;;;17.60;75.48;102355.34;4958028;28;20054;-81
2022/10/27 06:49:05;;;;;;;40.55;19.70;;;;;;;17.57;75.12;102336.81;4965404;28;20058;-82
2022/10/27 06:51:32;;;;;;;36.30;19.55;;;;;;;17.71;75.03;102357.88;4953231;28;20152;-80
2022/10/27 06:53:59;;;;;;;39.83;18.08;;;;;;;17.81;74.61;102357.91;4950565;28;20082;-82
2022/10/27 06:56:29;;;;;;;39.25;18.90;;;;;;;17.88;74.33;102366.25;4954833;28;20458;-82
2022/10/27 06:59:03;;;;;;;44.92;20.08;;;;;;;18.02;74.81;102398.06;4954265;28;20153;-81
2022/10/27 07:01:33;;;;;;;43.97;21.67;;;;;;;18.04;74.30;102385.34;4968862;28;20085;-81
2022/10/27 07:04:07;;;;;;;42.42;19.85;;;;;;;18.13;73.80;102394.38;4977722;28;20703;-81
2022/10/27 07:06:35;;;;;;;46.85;21.48;;;;;;;18.04;73.90;102388.03;4949146;28;20077;-82
2022/10/27 07:09:01;;;;;;;39.75;20.65;;;;;;;18.03;74.19;102385.47;4948549;28;20556;-80
2022/10/27 07:11:36;;;;;;;50.15;21.23;;;;;;;17.94;74.47;102369.22;4949806;28;20057;-80
2022/10/27 07:14:03;;;;;;;53.95;21.65;;;;;;;17.99;74.04;102365.28;4954114;28;20058;-80
2022/10/27 07:16:32;;;;;;;48.75;22.45;;;;;;;18.29;73.95;102420.69;4950518;28;20578;-81
2022/10/27 07:19:01;;;;;;;51.85;23.10;;;;;;;17.99;74.42;102387.63;4946596;28;20555;-80
2022/10/27 07:21:28;;;;;;;40.22;22.00;;;;;;;18.33;74.04;102428.34;4953519;28;20058;-80
2022/10/27 07:24:00;;;;;;;45.60;22.13;;;;;;;18.36;73.84;102428.03;4956641;28;20054;-80
2022/10/27 07:26:26;;;;;;;49.22;23.02;;;;;;;18.42;73.56;102429.31;4963840;28;20054;-81
2022/10/27 07:28:56;;;;;;;39.42;21.77;;;;;;;18.24;73.54;102404.16;4968165;28;20046;-80
2022/10/27 07:31:28;;;;;;;44.22;21.25;;;;;;;18.50;72.91;102439.38;4969706;28;20141;-82
2022/10/27 07:33:55;;;;;;;46.92;19.67;;;;;;;18.55;72.03;102443.31;4955172;28;20050;-81
2022/10/27 07:36:21;;;;;;;36.03;19.13;;;;;;;18.47;72.08;102420.81;4948161;28;20558;-79
2022/10/27 07:38:48;;;;;;;42.40;19.17;;;;;;;18.63;71.87;102439.88;4955705;28;20181;-81
2022/10/27 07:41:15;;;;;;;40.22;19.00;;;;;;;18.57;71.87;102433.25;4954781;28;20061;-82
2022/10/27 07:43:42;;;;;;;45.83;19.67;;;;;;;18.27;71.28;102375.13;4949287;28;20568;-80
2022/10/27 07:46:12;;;;;;;44.25;17.27;;;;;;;18.48;71.15;102403.69;4953610;28;20254;-81
2022/10/27 07:48:41;;;;;;;35.33;17.20;;;;;;;18.80;70.90;102441.03;4946829;28;20159;-81
2022/10/27 07:51:08;;;;;;;48.35;18.33;;;;;;;18.09;70.64;102332.03;4947555;28;20314;-81
2022/10/27 07:53:36;;;;;;;44.95;18.95;;;;;;;18.28;70.74;102357.19;4948019;28;20527;-80
2022/10/27 07:56:03;;;;;;;46.85;18.40;;;;;;;18.23;70.37;102359.44;4947529;28;20050;-80
2022/10/27 07:58:30;;;;;;;41.47;18.98;;;;;;;18.69;70.52;102428.56;4949578;28;20050;-80
2022/10/27 08:01:05;;;;;;;38.47;18.65;;;;;;;18.40;70.15;102380.22;4952340;28;20054;-81
2022/10/27 08:03:33;;;;;;;40.35;19.13;;;;;;;18.27;70.74;102363.53;4947506;28;20788;-81
2022/10/27 08:06:07;;;;;;;42.38;20.15;;;;;;;18.66;70.74;102409.16;4950177;28;20152;-80
2022/10/27 08:08:33;;;;;;;43.40;20.85;;;;;;;18.42;70.30;102372.84;4948904;28;20152;-80
2022/10/27 08:11:00;;;;;;;50.55;22.75;;;;;;;18.88;70.03;102429.53;4955679;28;20046;-80
2022/10/27 08:13:33;;;;;;;40.78;21.15;;;;;;;18.74;70.23;102398.53;4972922;28;20422;-84
2022/10/27 08:16:01;;;;;;;46.95;21.25;;;;;;;19.09;70.12;102457.06;4956208;28;20062;-81
2022/10/27 08:18:30;;;;;;;45.00;20.80;;;;;;;19.17;70.42;102459.03;4944248;28;20046;-80
2022/10/27 08:20:59;;;;;;;41.65;21.95;;;;;;;19.24;69.58;102464.66;4950645;28;20046;-82
2022/10/27 08:23:28;;;;;;;44.50;20.98;;;;;;;18.18;69.67;102289.13;4947270;28;20058;-82
2022/10/27 08:25:58;;;;;;;42.10;21.85;;;;;;;19.25;69.08;102421.44;4949793;28;20054;-82
2022/10/27 08:28:32;;;;;;;43.10;21.65;;;;;;;19.57;67.94;102461.38;4948016;28;20057;-82
2022/10/27 08:31:02;;;;;;;44.78;20.15;;;;;;;19.06;68.68;102381.16;4946061;28;20587;-81
2022/10/27 08:33:30;;;;;;;;;;;;;;;19.57;68.97;102464.09;4957651;28;20050;-82
2022/10/27 08:35:59;;;;;;;50.72;21.17;;;;;;;19.64;68.48;102467.03;4959182;28;19933;-82
2022/10/27 08:38:31;;;;;;;45.30;22.38;;;;;;;19.69;68.76;102456.69;4950546;28;20602;-82
2022/10/27 08:41:01;;;;;;;;;;;;;;;19.76;68.10;102460.47;4944915;28;20443;-83
2022/10/27 08:43:56;;;;;;;41.45;23.58;;;;;;;19.97;67.23;102462.00;4945335;28;20213;-81
2022/10/27 08:46:45;;;;;;;56.00;24.05;;;;;;;19.80;66.96;102445.66;4948104;28;20756;-83
2022/10/27 08:49:36;;;;;;;42.55;22.00;;;;;;;19.10;67.47;102312.56;4948957;28;20046;-82
2022/10/27 08:52:34;;;;;;;52.00;25.85;;;;;;;20.25;66.61;102466.31;4953014;28;20055;-82
2022/10/27 08:55:12;;;;;;;49.28;24.15;;;;;;;20.25;66.15;102463.63;4947997;28;20050;-80
2022/10/27 08:58:17;;;;;;;56.03;24.65;;;;;;;20.21;66.12;102448.75;4950420;28;20580;-80
2022/10/27 09:01:07;;;;;;;50.45;24.85;;;;;;;20.46;65.98;102467.84;4945153;28;20115;-82
2022/10/27 09:03:43;;;;;;;47.75;24.48;;;;;;;20.49;65.93;102475.63;4928930;28;20087;-82
2022/10/27 09:06:58;;;;;;;49.17;24.65;;;;;;;20.41;65.74;102465.63;4941769;28;20120;-81
2022/10/27 09:09:38;;;;;;;39.75;23.23;;;;;;;19.58;65.54;102300.59;4949002;28;20174;-80
2022/10/27 09:12:19;;;;;;;49.28;23.45;;;;;;;20.24;65.20;102389.13;4938986;28;20189;-81
2022/10/27 09:15:22;;;;;;;48.92;24.48;;;;;;;20.70;64.89;102449.19;4948907;28;20050;-82
2022/10/27 09:18:12;;;;;;;47.53;23.85;;;;;;;20.86;64.42;102469.19;4921431;28;20705;-82
2022/10/27 09:20:56;;;;;;;49.13;22.58;;;;;;;20.56;64.54;102406.59;4914478;28;20054;-80
2022/10/27 09:23:43;;;;;;;58.15;23.13;;;;;;;21.00;64.57;102463.19;4950655;28;20631;-81
2022/10/27 09:26:13;;;;;;;49.65;24.25;;;;;;;20.88;64.45;102440.19;4946982;28;20054;-82
2022/10/27 09:28:47;;;;;;;52.60;25.33;;;;;;;21.06;64.55;102456.28;4944664;28;20153;-82
2022/10/27 09:31:24;;;;;;;52.75;23.77;;;;;;;21.20;64.52;102463.78;4949908;28;20070;-81
2022/10/27 09:34:06;;;;;;;54.05;25.08;;;;;;;21.27;64.43;102472.13;4949960;28;20469;-81
2022/10/27 09:36:34;;;;;;;50.50;25.27;;;;;;;21.32;63.83;102458.97;4952997;28;20090;-80
2022/10/27 09:39:01;;;;;;;57.80;26.40;;;;;;;21.42;63.84;102470.50;4955091;28;20055;-79
2022/10/27 09:41:28;;;;;;;50.20;25.95;;;;;;;21.42;63.58;102434.56;4973720;28;20267;-81
2022/10/27 09:44:02;;;;;;;41.85;25.55;;;;;;;21.58;63.30;102458.06;4968036;28;20552;-80
2022/10/27 09:46:37;;;;;;;48.55;27.42;;;;;;;20.48;63.17;102264.34;4964627;28;20038;-78
2022/10/27 09:49:08;;;;;;;44.63;24.83;;;;;;;21.61;63.40;102442.38;4970197;28;20054;-79
2022/10/27 09:51:52;;;;;;;48.92;25.55;;;;;;;21.69;62.28;102438.84;4970739;28;20397;-79
2022/10/27 09:54:30;;;;;;;53.33;27.02;;;;;;;22.02;62.45;102471.38;4970246;28;20050;-77
2022/10/27 09:57:07;;;;;;;62.78;27.88;;;;;;;22.17;62.08;102481.34;4962061;28;20101;-77
2022/10/27 09:59:39;;;;;;;54.90;28.73;;;;;;;22.19;62.11;102467.66;4949476;28;20175;-81
2022/10/27 10:02:24;;;;;;;57.25;27.88;;;;;;;22.37;61.34;102470.22;4948849;28;20073;-78
2022/10/27 10:04:51;;;;;;;56.92;30.45;;;;;;;22.52;61.25;102467.69;4945513;28;20121;-79
2022/10/27 10:07:39;;;;;;;51.72;27.08;;;;;;;22.25;60.82;102417.47;4952136;28;20588;-81
2022/10/27 10:10:28;;;;;;;57.15;29.13;;;;;;;22.58;60.82;102459.72;4954998;28;20589;-78
2022/10/27 10:13:00;;;;;;;58.45;29.17;;;;;;;22.81;60.46;102467.13;4954916;28;20580;-79
2022/10/27 10:15:28;;;;;;;55.45;29.00;;;;;;;22.88;60.41;102468.13;4954739;28;20058;-79
2022/10/27 10:18:00;;;;;;;55.05;28.30;;;;;;;22.71;59.68;102409.63;4951237;28;20058;-77
2022/10/27 10:20:38;;;;;;;52.33;27.30;;;;;;;22.89;59.52;102439.19;4954567;28;20098;-79
2022/10/27 10:23:23;;;;;;;48.50;28.23;;;;;;;23.00;58.90;102438.84;4950792;28;20240;-78
2022/10/27 10:25:55;;;;;;;49.75;28.25;;;;;;;23.10;59.13;102450.31;4954096;28;20241;-78
2022/10/27 10:28:32;;;;;;;56.33;27.25;;;;;;;23.06;59.09;102424.63;4953037;28;20082;-80
2022/10/27 10:31:10;;;;;;;53.63;28.85;;;;;;;23.37;58.80;102464.44;4953353;28;20347;-78
2022/10/27 10:33:46;;;;;;;52.10;29.35;;;;;;;23.30;58.77;102439.91;4956287;28;20140;-80
2022/10/27 10:36:26;;;;;;;65.63;32.33;;;;;;;23.57;58.54;102463.00;4950901;28;20305;-81
2022/10/27 10:38:57;;;;;;;51.95;31.85;;;;;;;23.42;57.96;102438.53;4964246;28;20520;-82
2022/10/27 10:41:30;;;;;;;64.03;30.08;;;;;;;23.65;58.02;102454.81;4964419;28;20056;-79
2022/10/27 10:44:28;;;;;;;60.05;31.20;;;;;;;23.52;57.55;102422.03;4955348;28;20050;-79
2022/10/27 10:46:56;;;;;;;56.95;30.40;;;;;;;23.51;57.79;102412.22;4950214;28;20511;-79
2022/10/27 10:49:29;;;;;;;57.60;32.05;;;;;;;23.81;57.34;102439.50;4953402;28;20375;-80
2022/10/27 10:52:02;;;;;;;54.22;29.85;;;;;;;23.92;57.42;102452.66;4953364;28;20366;-79
2022/10/27 10:54:39;;;;;;;63.58;31.45;;;;;;;23.87;57.45;102438.78;4954371;28;20857;-82
2022/10/27 10:57:27;;;;;;;77.43;33.55;;;;;;;23.57;57.21;102400.66;4954542;28;20413;-82
2022/10/27 10:59:59;;;;;;;60.55;31.35;;;;;;;23.79;57.62;102449.72;4954743;28;20058;-82
2022/10/27 11:02:33;;;;;;;63.20;31.13;;;;;;;23.40;57.31;102370.09;4951490;28;20061;-82
2022/10/27 11:05:47;;;;;;;56.88;30.90;;;;;;;23.62;57.87;102449.78;4969298;28;20241;-81
2022/10/27 11:08:23;;;;;;;59.10;33.72;;;;;;;23.13;58.46;102373.28;4958129;28;20081;-80
2022/10/27 11:10:51;;;;;;;59.90;34.60;;;;;;;23.04;58.85;102392.28;4953639;28;20140;-81
2022/10/27 11:13:22;;;;;;;72.43;35.78;;;;;;;23.17;59.65;102417.97;4938518;28;20054;-81
2022/10/27 11:16:05;;;;;;;70.82;35.65;;;;;;;23.06;59.45;102399.38;4936675;28;20234;-83
2022/10/27 11:19:00;;;;;;;62.30;33.67;;;;;;;22.91;59.52;102374.88;4935642;28;20051;-81
2022/10/27 11:21:30;;;;;;;60.63;34.95;;;;;;;22.23;59.61;102263.44;4937164;28;20054;-80
2022/10/27 11:24:13;;;;;;;69.75;34.50;;;;;;;23.16;59.61;102410.88;4950265;28;20802;-82
2022/10/27 11:26:57;;;;;;;59.35;32.92;;;;;;;23.14;59.77;102408.34;4953134;28;20226;-81
2022/10/27 11:29:39;;;;;;;72.10;37.60;;;;;;;23.22;59.88;102415.56;4954474;28;20046;-82
2022/10/27 11:33:05;;;;;;;68.25;36.38;;;;;;;23.22;60.05;102427.25;5070737;27;20607;-82
2022/10/27 11:35:50;;;;;;;67.90;36.55;;;;;;;23.19;60.10;102427.63;5064415;28;20117;-81
2022/10/27 11:39:04;;;;;;;65.63;35.30;;;;;;;22.69;60.10;102339.41;5062903;28;20217;-81
2022/10/27 11:42:24;;;;;;;66.22;36.13;;;;;;;23.22;60.10;102421.84;5070557;28;20078;-80